Latest Weather Observations for Woolshed

IDQ60801

Issued at 5:02 pm EST Saturday 24 June 2017 (issued every 30 minutes, with the page automatically refreshed every 10 minutes)

About weather observations | Map of weather stations | Latest weather observations for QLD | Other Formats
Station Details ID: 033307 Name: WOOLSHED Lat: -19.42 Lon: 146.54 Height: 556.04 m
Data from the previous 72 hours. | See also: Recent months at Woolshed
Date/Time
EST
Temp
°C
App
Temp
°C
Dew
Point
°C
Rel
Hum
%
Delta-T
°C
Wind Press
QNH
hPa
Press
MSL
hPa
Rain since
9am
mm
Dir  Spd
km/h
Gust
km/h
Spd
kts
Gust
kts
24/05:00pm 18.9 19.2 13.5 71 3.1 ESE 4 6 2 3 1017.7 1016.1 0.0
24/04:30pm 19.2 19.1 13.2 68 3.5 ESE 6 9 3 5 1017.6 1016.0 0.0
24/04:00pm 19.4 19.2 13.1 67 3.7 ESE 6 9 3 5 1017.4 1015.8 0.0
24/03:30pm 19.4 19.0 13.1 67 3.7 ESE 7 13 4 7 1017.6 1016.0 0.0
24/03:00pm 19.4 19.2 12.9 66 3.8 ESE 6 13 3 7 1017.8 1016.2 0.0
24/02:30pm 19.4 19.2 13.6 69 3.4 ESE 7 11 4 6 1017.9 1016.3 0.0
24/02:00pm 18.7 18.9 14.2 75 2.7 NE 6 9 3 5 1018.0 1016.4 0.0
24/01:30pm 18.4 18.6 14.1 76 2.5 NE 6 11 3 6 1018.2 1016.5 0.0
24/01:00pm 19.4 19.0 12.9 66 3.8 E 7 19 4 10 1018.3 1016.6 0.0
24/12:30pm 19.6 19.3 12.8 65 3.9 ESE 6 11 3 6 1018.8 1017.2 0.0
24/12:00pm 19.6 19.5 13.3 67 3.7 SSE 6 13 3 7 1019.3 1017.7 0.0
24/11:30am 18.9 18.7 13.5 71 3.2 SE 7 13 4 7 1019.7 1018.1 0.0
24/11:00am 18.5 17.3 12.9 70 3.2 SE 11 20 6 11 1019.7 1018.1 0.0
24/10:30am 19.7 19.3 14.1 70 3.3 ESE 9 17 5 9 1019.6 1018.0 0.0
24/10:00am 19.6 19.8 14.2 71 3.2 SSE 6 9 3 5 1019.5 1017.9 0.0
24/09:30am 18.9 19.3 14.8 77 2.4 SE 6 9 3 5 1019.5 1017.9 0.0
24/09:00am 18.2 18.7 14.9 81 2.0 SE 6 9 3 5 1019.5 1017.9 0.0
24/08:30am 16.5 17.2 15.7 95 0.5 SE 6 9 3 5 1019.3 1017.7 0.0
24/08:00am 14.8 16.3 14.6 99 0.1 CALM 0 6 0 3 1019.1 1017.5 0.0
24/07:30am 11.7 12.1 11.4 98 0.2 CALM 0 0 0 0 1018.9 1017.3 0.0
24/07:00am 10.3 10.3 9.7 96 0.3 CALM 0 0 0 0 1018.5 1016.8 0.0
24/06:30am 11.3 11.6 11.0 98 0.2 CALM 0 0 0 0 1018.3 1016.6 0.0
24/06:00am 11.8 12.2 11.3 97 0.3 CALM 0 0 0 0 1018.2 1016.5 0.0
24/05:30am 11.4 11.7 10.9 97 0.3 CALM 0 0 0 0 1017.9 1016.3 0.0
24/05:00am 12.2 12.8 11.9 98 0.2 CALM 0 0 0 0 1017.9 1016.3 0.0
24/04:30am 11.6 12.0 11.1 97 0.3 CALM 0 0 0 0 1017.7 1016.1 0.0
24/04:00am 11.3 11.5 10.4 94 0.5 CALM 0 0 0 0 1017.8 1016.2 0.0
24/03:30am 12.1 12.0 10.8 92 0.7 SE 2 6 1 3 1018.3 1016.6 0.0
24/03:00am 13.5 13.6 12.7 95 0.4 SE 4 7 2 4 1018.5 1016.8 0.0
24/02:30am 14.1 13.9 13.1 94 0.6 SE 6 9 3 5 1018.7 1017.1 0.0
24/02:00am 14.2 14.4 13.1 93 0.6 SE 4 11 2 6 1018.9 1017.3 0.0
24/01:30am 14.4 14.7 13.3 93 0.6 SSE 4 9 2 5 1019.1 1017.5 0.0
24/01:00am 14.7 14.6 13.9 95 0.5 SE 7 15 4 8 1019.5 1017.9 0.0
24/12:30am 14.2 14.2 13.6 96 0.3 SE 6 13 3 7 1019.6 1018.0 0.0
24/12:00am 13.5 13.3 13.0 97 0.3 ESE 6 11 3 6 1019.7 1018.1 0.0
 
Date/Time
EST
Temp
°C
App
Temp
°C
Dew
Point
°C
Rel
Hum
%
Delta-T
°C
Wind Press
QNH
hPa
Press
MSL
hPa
Rain since
9am
mm
Dir  Spd
km/h
Gust
km/h
Spd
kts
Gust
kts
23/11:30pm 11.2 11.1 9.6 90 0.8 CALM 0 0 0 0 1019.8 1018.2 0.0
23/11:00pm 13.6 14.6 13.1 97 0.3 CALM 0 0 0 0 1020.2 1018.6 0.0
23/10:30pm 13.0 13.8 12.4 96 0.3 CALM 0 0 0 0 1020.4 1018.8 0.0
23/10:00pm 13.0 13.7 12.1 94 0.5 CALM 0 0 0 0 1020.7 1019.1 0.0
23/09:30pm 12.5 12.9 11.1 91 0.8 CALM 0 0 0 0 1020.5 1018.9 0.0
23/09:00pm 14.5 15.7 13.7 95 0.5 CALM 0 0 0 0 1020.6 1019.0 0.0
23/08:30pm 14.4 15.4 13.1 92 0.7 CALM 0 0 0 0 1020.4 1018.8 0.0
23/08:00pm 14.8 15.0 13.2 90 0.9 N 4 6 2 3 1020.2 1018.6 0.0
23/07:30pm 14.7 14.8 12.7 88 1.1 N 4 6 2 3 1019.9 1018.3 0.0
23/07:00pm 15.1 15.1 12.4 84 1.5 NNE 4 6 2 3 1019.6 1018.0 0.0
23/06:30pm 15.9 16.7 12.6 81 1.9 CALM 0 4 0 2 1019.3 1017.7 0.0
23/06:00pm 17.1 18.0 13.0 77 2.3 CALM 0 0 0 0 1019.2 1017.6 0.0
23/05:30pm 18.6 19.7 13.5 72 3.0 CALM 0 0 0 0 1019.0 1017.4 0.0
23/05:00pm 19.4 20.0 13.1 67 3.7 NE 2 7 1 4 1019.0 1017.4 0.0
23/04:30pm 19.6 20.3 13.3 67 3.7 NE 2 6 1 3 1019.0 1017.4 0.0
23/04:00pm 19.4 19.5 12.7 65 3.9 ENE 4 7 2 4 1018.8 1017.2 0.0
23/03:30pm 19.8 19.4 12.3 62 4.3 E 6 13 3 7 1018.7 1017.1 0.0
23/03:00pm 20.7 20.7 12.4 59 4.8 E 4 9 2 5 1018.5 1016.8 0.0
23/02:30pm 20.7 20.5 12.9 61 4.5 SE 6 15 3 8 1018.8 1017.2 0.0
23/02:00pm 20.3 19.9 12.3 60 4.6 ENE 6 13 3 7 1019.0 1017.4 0.0
23/01:30pm 20.9 20.5 12.3 58 5.0 E 6 11 3 6 1019.2 1017.6 0.0
23/01:00pm 20.5 20.0 12.5 60 4.6 E 7 17 4 9 1019.7 1018.1 0.0
23/12:30pm 20.6 20.1 12.1 58 4.9 SE 6 11 3 6 1020.2 1018.6 0.0
23/12:00pm 21.3 20.3 12.4 57 5.1 ESE 9 13 5 7 1020.7 1019.1 0.0
23/11:30am 20.3 19.8 12.0 59 4.8 E 6 13 3 7 1021.2 1019.6 0.0
23/11:00am 19.9 19.4 12.2 61 4.4 SE 6 9 3 5 1021.5 1019.9 0.0
23/10:30am 20.3 19.8 12.8 62 4.4 SE 7 17 4 9 1021.6 1020.0 0.0
23/10:00am 18.8 17.4 12.1 65 3.8 SE 11 22 6 12 1022.0 1020.4 0.0
23/09:30am 18.2 16.9 12.4 69 3.3 ESE 11 20 6 11 1022.0 1020.4 0.0
23/09:00am 17.7 16.0 12.6 72 2.9 SE 13 20 7 11 1021.7 1020.2 0.0
23/08:30am 17.2 16.3 12.5 74 2.7 ESE 9 19 5 10 1021.5 1019.9 0.0
23/08:00am 16.4 15.8 12.2 76 2.4 ESE 7 15 4 8 1021.4 1019.8 0.0
23/07:30am 14.8 14.0 11.8 82 1.7 SE 7 15 4 8 1021.0 1019.4 0.0
23/07:00am 13.6 12.9 10.0 79 1.9 SE 4 9 2 5 1020.8 1019.2 0.0
23/06:30am 13.9 12.7 9.5 75 2.3 SE 6 13 3 7 1020.6 1019.0 0.0
23/06:00am 13.1 12.0 8.6 74 2.3 SE 4 9 2 5 1020.6 1019.0 0.0
23/05:30am 13.3 12.0 9.2 76 2.1 SE 6 11 3 6 1020.5 1018.9 0.0
23/05:00am 12.6 12.4 8.9 78 1.9 CALM 0 0 0 0 1020.2 1018.6 0.0
23/04:30am 13.4 12.0 8.9 74 2.3 SE 6 17 3 9 1020.2 1018.6 0.0
23/04:00am 14.0 12.6 9.4 74 2.4 SE 7 17 4 9 1020.2 1018.6 0.0
23/03:30am 13.6 12.3 9.8 78 2.0 SE 7 15 4 8 1020.3 1018.7 0.0
23/03:00am 14.1 12.9 10.3 78 2.0 SE 7 11 4 6 1020.6 1019.0 0.0
23/02:30am 13.7 12.4 9.9 78 2.0 SE 7 13 4 7 1020.7 1019.1 0.0
23/02:00am 13.9 12.8 10.7 81 1.7 SE 7 19 4 10 1020.9 1019.3 0.0
23/01:30am 11.4 10.4 10.3 93 0.6 SE 6 9 3 5 1021.2 1019.6 0.0
23/01:00am 11.2 10.1 10.0 92 0.6 SE 6 9 3 5 1021.5 1019.9 0.0
23/12:30am 11.7 11.2 10.8 94 0.5 SE 4 6 2 3 1021.7 1020.2 0.0
23/12:00am 11.9 11.1 11.1 95 0.4 SE 6 6 3 3 1022.0 1020.4 0.0
 
Date/Time
EST
Temp
°C
App
Temp
°C
Dew
Point
°C
Rel
Hum
%
Delta-T
°C
Wind Press
QNH
hPa
Press
MSL
hPa
Rain since
9am
mm
Dir  Spd
km/h
Gust
km/h
Spd
kts
Gust
kts
22/11:30pm 11.7 11.5 10.4 92 0.7 SSE 2 6 1 3 1022.2 1020.6 0.0
22/11:00pm 12.6 12.8 10.5 87 1.1 CALM 0 0 0 0 1022.3 1020.7 0.0
22/10:30pm 14.4 15.3 12.8 90 0.9 CALM 0 0 0 0 1022.5 1020.9 0.0
22/10:00pm 14.6 15.5 12.8 89 1.0 CALM 0 0 0 0 1022.7 1021.1 0.0
22/09:30pm 15.6 16.5 12.9 84 1.5 CALM 0 2 0 1 1022.7 1021.1 0.0
22/09:00pm 15.2 15.7 12.7 85 1.4 SE 2 6 1 3 1022.7 1021.1 0.0
22/08:30pm 16.1 17.1 13.2 83 1.7 CALM 0 0 0 0 1022.5 1020.9 0.0
22/08:00pm 16.6 17.7 13.5 82 1.8 CALM 0 0 0 0 1022.3 1020.7 0.0
22/07:30pm 17.1 18.4 14.0 82 1.8 CALM 0 0 0 0 1022.0 1020.4 0.0
22/07:00pm 16.9 18.2 14.2 84 1.6 CALM 0 0 0 0 1021.7 1020.2 0.0
22/06:30pm 16.7 18.0 14.0 84 1.6 CALM 0 0 0 0 1021.4 1019.8 0.0
22/06:00pm 17.5 18.8 14.2 81 1.9 CALM 0 0 0 0 1021.1 1019.5 0.0
22/05:30pm 18.3 19.3 14.2 77 2.4 NE 2 6 1 3 1021.0 1019.4 0.0
22/05:00pm 19.1 19.8 13.5 70 3.3 ENE 2 7 1 4 1020.8 1019.2 0.0
22/04:30pm 19.1 18.9 13.1 68 3.5 E 6 11 3 6 1020.6 1019.0 0.0
22/04:00pm 20.1 19.8 13.3 65 4.0 ESE 7 13 4 7 1020.5 1018.9 0.0
22/03:30pm 19.9 19.6 13.4 66 3.8 ESE 7 13 4 7 1020.6 1019.0 0.0
22/03:00pm 20.2 19.9 13.4 65 4.0 ESE 7 15 4 8 1020.6 1019.0 0.0
22/02:30pm 19.8 19.4 13.0 65 4.0 E 7 17 4 9 1020.6 1019.0 0.0
22/02:00pm 20.3 20.1 13.5 65 4.0 ESE 7 13 4 7 1020.7 1019.1 0.0
22/01:30pm 20.0 19.7 12.7 63 4.2 ESE 6 11 3 6 1021.0 1019.4 0.0
22/01:00pm 19.8 19.5 13.3 66 3.8 E 7 15 4 8 1021.4 1019.8 0.0
22/12:30pm 20.2 19.5 13.2 64 4.1 E 9 17 5 9 1022.1 1020.5 0.0
22/12:00pm 19.7 19.2 12.7 64 4.0 E 7 13 4 7 1022.5 1020.9 0.0
22/11:30am 19.4 18.4 12.4 64 4.0 E 9 17 5 9 1022.9 1021.3 0.0
22/11:00am 19.5 19.0 12.5 64 4.0 ESE 7 13 4 7 1023.1 1021.5 0.0
22/10:30am 19.2 18.3 12.5 65 3.8 E 9 15 5 8 1023.4 1021.9 0.0
22/10:00am 18.5 17.7 11.8 65 3.8 ESE 7 17 4 9 1023.5 1022.0 0.0
22/09:30am 18.1 16.8 11.2 64 3.9 ESE 9 17 5 9 1023.5 1022.0 0.0
22/09:00am 17.2 15.8 10.8 66 3.5 SE 9 20 5 11 1023.3 1021.8 0.0
22/08:30am 16.1 15.0 10.8 71 2.9 SE 7 13 4 7 1023.1 1021.5 0.0
22/08:00am 14.3 13.4 10.7 79 1.9 ESE 6 9 3 5 1022.9 1021.3 0.0
22/07:30am 11.8 10.8 8.8 82 1.5 SE 4 7 2 4 1022.6 1021.0 0.0
22/07:00am 12.1 10.8 9.3 83 1.4 SE 6 11 3 6 1022.2 1020.6 0.0
22/06:30am 12.3 11.1 9.7 84 1.4 SE 6 11 3 6 1022.0 1020.4 0.0
22/06:00am 11.7 10.8 9.1 84 1.3 SE 4 9 2 5 1021.4 1019.8 0.0
22/05:30am 11.9 10.5 9.5 85 1.3 SE 7 11 4 6 1021.6 1020.0 0.0
22/05:00am 11.8 10.8 10.2 90 0.8 SE 6 11 3 6 1021.5 1019.9 0.0
22/04:30am 12.0 11.3 9.9 87 1.1 SSE 4 9 2 5 1021.5 1019.9 0.0
22/04:00am 12.8 12.0 11.0 89 1.0 SE 6 9 3 5 1021.7 1020.2 0.0
22/03:30am 12.6 12.0 10.3 86 1.2 ESE 4 7 2 4 1021.8 1020.3 0.0
22/03:00am 12.1 10.9 9.5 84 1.4 SE 6 7 3 4 1022.1 1020.5 0.0
22/02:30am 11.9 11.0 9.3 84 1.3 SE 4 7 2 4 1022.2 1020.6 0.0
22/02:00am 12.3 11.9 9.7 84 1.4 ESE 2 6 1 3 1022.5 1020.9 0.0
22/01:30am 13.1 12.9 10.3 83 1.5 E 2 4 1 2 1022.6 1021.0 0.0
22/01:00am 13.7 13.4 11.4 86 1.3 ESE 4 9 2 5 1022.9 1021.3 0.0
22/12:30am 14.3 14.5 12.9 91 0.8 ENE 4 6 2 3 1022.9 1021.3 0.0
22/12:00am 13.8 13.9 12.7 93 0.6 NE 4 7 2 4 1022.9 1021.3 0.0
 
Date/Time
EST
Temp
°C
App
Temp
°C
Dew
Point
°C
Rel
Hum
%
Delta-T
°C
Wind Press
QNH
hPa
Press
MSL
hPa
Rain since
9am
mm
Dir  Spd
km/h
Gust
km/h
Spd
kts
Gust
kts
21/11:30pm 13.6 13.7 12.7 94 0.5 NE 4 7 2 4 1023.0 1021.4 0.0
21/11:00pm 13.7 14.1 12.6 93 0.6 NNE 2 6 1 3 1023.0 1021.4 0.0
21/10:30pm 13.8 13.9 12.7 93 0.6 NNE 4 9 2 5 1023.1 1021.5 0.0
21/10:00pm 14.3 14.5 13.2 93 0.6 NNE 4 4 2 2 1023.0 1021.4 0.0
21/09:30pm 14.5 14.8 13.5 94 0.6 N 4 6 2 3 1023.0 1021.4 0.0
21/09:00pm 14.6 15.0 13.6 94 0.6 N 4 7 2 4 1022.8 1021.2 0.0
21/08:30pm 14.6 14.9 13.5 93 0.6 NNE 4 6 2 3 1022.6 1021.0 0.0
21/08:00pm 14.8 15.1 13.3 91 0.9 N 4 6 2 3 1022.3 1020.7 0.0
21/07:30pm 14.9 15.2 13.4 91 0.9 N 4 6 2 3 1022.0 1020.4 0.0
21/07:00pm 15.2 15.4 13.2 88 1.1 N 4 9 2 5 1021.4 1019.8 0.0
21/06:30pm 15.6 15.8 13.1 85 1.4 N 4 7 2 4 1021.1 1019.5 0.0
21/06:00pm 16.4 16.9 12.9 80 2.0 N 2 6 1 3 1020.8 1019.2 0.0
21/05:30pm 17.9 18.1 13.2 74 2.7 NNE 4 7 2 4 1020.6 1019.0 0.0

Other Formats:

Comma delimited format used in spreadsheet applications
http://www.bom.gov.au/fwo/IDQ60801/IDQ60801.95293.axf

JavaScript Object Notation format (JSON) in row-major order
http://www.bom.gov.au/fwo/IDQ60801/IDQ60801.95293.json